sensor_id;sensor_type;location;lat;lon;timestamp;pressure;altitude;pressure_sealevel;temperature;humidity
17764;BME280;22245;52.832;13.816;2022-08-25T00:00:40;101996.59;;;19.85;85.97
17764;BME280;22245;52.832;13.816;2022-08-25T00:04:06;102005.72;;;19.84;85.93
17764;BME280;22245;52.832;13.816;2022-08-25T00:07:28;102000.66;;;19.80;85.64
17764;BME280;22245;52.832;13.816;2022-08-25T00:10:52;102001.81;;;19.78;86.19
17764;BME280;22245;52.832;13.816;2022-08-25T00:14:25;101992.19;;;19.75;86.18
17764;BME280;22245;52.832;13.816;2022-08-25T00:17:47;101989.63;;;19.74;86.07
17764;BME280;22245;52.832;13.816;2022-08-25T00:21:10;101985.69;;;19.68;86.02
17764;BME280;22245;52.832;13.816;2022-08-25T00:24:32;101986.03;;;19.65;86.48
17764;BME280;22245;52.832;13.816;2022-08-25T00:27:55;101988.22;;;19.61;86.27
17764;BME280;22245;52.832;13.816;2022-08-25T00:31:20;101986.66;;;19.59;86.45
17764;BME280;22245;52.832;13.816;2022-08-25T00:34:57;101987.00;;;19.56;86.37
17764;BME280;22245;52.832;13.816;2022-08-25T00:38:19;101988.00;;;19.55;86.24
17764;BME280;22245;52.832;13.816;2022-08-25T00:41:42;101989.00;;;19.53;86.48
17764;BME280;22245;52.832;13.816;2022-08-25T00:45:07;101986.31;;;19.53;86.51
17764;BME280;22245;52.832;13.816;2022-08-25T00:48:29;101991.72;;;19.53;86.64
17764;BME280;22245;52.832;13.816;2022-08-25T00:51:55;101991.03;;;19.51;86.68
17764;BME280;22245;52.832;13.816;2022-08-25T00:55:22;101990.34;;;19.49;86.50
17764;BME280;22245;52.832;13.816;2022-08-25T00:58:46;101990.34;;;19.49;86.81
17764;BME280;22245;52.832;13.816;2022-08-25T01:02:10;101985.94;;;19.48;86.59
17764;BME280;22245;52.832;13.816;2022-08-25T01:05:33;101989.13;;;19.44;86.78
17764;BME280;22245;52.832;13.816;2022-08-25T01:08:56;101997.22;;;19.44;86.75
17764;BME280;22245;52.832;13.816;2022-08-25T01:12:18;101989.28;;;19.42;86.80
17764;BME280;22245;52.832;13.816;2022-08-25T01:15:41;101995.69;;;19.41;87.08
17764;BME280;22245;52.832;13.816;2022-08-25T01:19:06;101980.66;;;19.38;87.50
17764;BME280;22245;52.832;13.816;2022-08-25T01:22:35;101978.13;;;19.37;87.68
17764;BME280;22245;52.832;13.816;2022-08-25T01:26:04;101978.13;;;19.37;87.88
17764;BME280;22245;52.832;13.816;2022-08-25T01:29:26;101982.84;;;19.35;88.03
17764;BME280;22245;52.832;13.816;2022-08-25T01:32:48;101976.56;;;19.34;87.49
17764;BME280;22245;52.832;13.816;2022-08-25T01:36:10;101978.44;;;19.34;87.74
17764;BME280;22245;52.832;13.816;2022-08-25T01:39:33;101975.75;;;19.34;88.01
17764;BME280;22245;52.832;13.816;2022-08-25T01:43:02;101978.44;;;19.34;87.98
17764;BME280;22245;52.832;13.816;2022-08-25T01:46:27;101973.72;;;19.36;88.48
17764;BME280;22245;52.832;13.816;2022-08-25T01:49:49;101967.81;;;19.41;88.33
17764;BME280;22245;52.832;13.816;2022-08-25T01:53:17;101973.22;;;19.41;88.76
17764;BME280;22245;52.832;13.816;2022-08-25T01:56:41;101967.69;;;19.42;88.97
17764;BME280;22245;52.832;13.816;2022-08-25T02:00:04;101974.94;;;19.42;89.07
17764;BME280;22245;52.832;13.816;2022-08-25T02:03:30;101975.47;;;19.45;89.17
17764;BME280;22245;52.832;13.816;2022-08-25T02:06:52;101970.75;;;19.47;89.27
17764;BME280;22245;52.832;13.816;2022-08-25T02:10:14;101968.88;;;19.48;89.45
17764;BME280;22245;52.832;13.816;2022-08-25T02:13:37;101967.03;;;19.48;89.61
17764;BME280;22245;52.832;13.816;2022-08-25T02:16:59;101969.19;;;19.45;90.09
17764;BME280;22245;52.832;13.816;2022-08-25T02:20:21;101962.63;;;19.47;90.31
17764;BME280;22245;52.832;13.816;2022-08-25T02:23:44;101954.91;;;19.52;90.33
17764;BME280;22245;52.832;13.816;2022-08-25T02:27:05;101959.97;;;19.56;90.30
17764;BME280;22245;52.832;13.816;2022-08-25T02:30:29;101950.72;;;19.58;90.10
17764;BME280;22245;52.832;13.816;2022-08-25T02:33:51;101945.81;;;19.62;89.92
17764;BME280;22245;52.832;13.816;2022-08-25T02:37:14;101942.09;;;19.63;89.95
17764;BME280;22245;52.832;13.816;2022-08-25T02:40:36;101941.59;;;19.59;90.46
17764;BME280;22245;52.832;13.816;2022-08-25T02:43:59;101944.31;;;19.59;90.99
17764;BME280;22245;52.832;13.816;2022-08-25T02:47:22;101949.19;;;19.64;90.70
17764;BME280;22245;52.832;13.816;2022-08-25T02:50:47;101948.19;;;19.65;90.79
17764;BME280;22245;52.832;13.816;2022-08-25T02:54:11;101950.75;;;19.66;90.65
17764;BME280;22245;52.832;13.816;2022-08-25T02:57:33;101948.88;;;19.67;90.79
17764;BME280;22245;52.832;13.816;2022-08-25T03:00:55;101950.41;;;19.70;90.93
17764;BME280;22245;52.832;13.816;2022-08-25T03:04:18;101948.25;;;19.73;90.88
17764;BME280;22245;52.832;13.816;2022-08-25T03:07:41;101936.44;;;19.74;90.86
17764;BME280;22245;52.832;13.816;2022-08-25T03:11:04;101945.22;;;19.76;90.81
17764;BME280;22245;52.832;13.816;2022-08-25T03:14:26;101934.34;;;19.68;91.65
17764;BME280;22245;52.832;13.816;2022-08-25T03:17:48;101937.22;;;19.66;91.72
17764;BME280;22245;52.832;13.816;2022-08-25T03:21:11;101937.38;;;19.65;91.86
17764;BME280;22245;52.832;13.816;2022-08-25T03:24:35;101936.22;;;19.67;91.78
17764;BME280;22245;52.832;13.816;2022-08-25T03:27:58;101934.88;;;19.72;91.19
17764;BME280;22245;52.832;13.816;2022-08-25T03:31:19;101932.88;;;19.74;91.02
17764;BME280;22245;52.832;13.816;2022-08-25T03:34:41;101940.16;;;19.73;90.91
17764;BME280;22245;52.832;13.816;2022-08-25T03:38:04;101943.53;;;19.75;90.79
17764;BME280;22245;52.832;13.816;2022-08-25T03:41:28;101928.81;;;19.78;90.05
17764;BME280;22245;52.832;13.816;2022-08-25T03:44:51;101934.41;;;19.76;89.91
17764;BME280;22245;52.832;13.816;2022-08-25T03:48:15;101932.38;;;19.70;90.22
17764;BME280;22245;52.832;13.816;2022-08-25T03:51:39;101937.91;;;19.69;90.37
17764;BME280;22245;52.832;13.816;2022-08-25T03:55:05;101940.63;;;19.69;90.24
17764;BME280;22245;52.832;13.816;2022-08-25T03:58:28;101938.44;;;19.72;90.49
17764;BME280;22245;52.832;13.816;2022-08-25T04:01:50;101943.69;;;19.74;90.36
17764;BME280;22245;52.832;13.816;2022-08-25T04:05:14;101935.56;;;19.74;90.27
17764;BME280;22245;52.832;13.816;2022-08-25T04:08:37;101941.50;;;19.77;90.21
17764;BME280;22245;52.832;13.816;2022-08-25T04:12:00;101938.63;;;19.79;90.41
17764;BME280;22245;52.832;13.816;2022-08-25T04:15:22;101939.50;;;19.79;90.24
17764;BME280;22245;52.832;13.816;2022-08-25T04:18:50;101937.78;;;19.78;90.58
17764;BME280;22245;52.832;13.816;2022-08-25T04:22:12;101936.09;;;19.77;90.72
17764;BME280;22245;52.832;13.816;2022-08-25T04:25:34;101926.97;;;19.78;91.07
17764;BME280;22245;52.832;13.816;2022-08-25T04:28:58;101933.41;;;19.77;91.05
17764;BME280;22245;52.832;13.816;2022-08-25T04:32:20;101936.44;;;19.74;91.26
17764;BME280;22245;52.832;13.816;2022-08-25T04:35:46;101935.56;;;19.74;91.71
17764;BME280;22245;52.832;13.816;2022-08-25T04:39:08;101942.16;;;19.71;92.30
17764;BME280;22245;52.832;13.816;2022-08-25T04:42:30;101941.09;;;19.64;92.95
17764;BME280;22245;52.832;13.816;2022-08-25T04:45:53;101936.56;;;19.64;93.01
17764;BME280;22245;52.832;13.816;2022-08-25T04:49:15;101939.06;;;19.66;92.99
17764;BME280;22245;52.832;13.816;2022-08-25T04:52:37;101940.16;;;19.73;92.71
17764;BME280;22245;52.832;13.816;2022-08-25T04:55:59;101938.97;;;19.76;92.89
17764;BME280;22245;52.832;13.816;2022-08-25T04:59:23;101943.03;;;19.80;92.53
17764;BME280;22245;52.832;13.816;2022-08-25T05:02:52;101934.41;;;19.76;92.68
17764;BME280;22245;52.832;13.816;2022-08-25T05:06:14;101932.38;;;19.70;93.75
17764;BME280;22245;52.832;13.816;2022-08-25T05:09:36;101935.56;;;19.74;93.93
17764;BME280;22245;52.832;13.816;2022-08-25T05:12:58;101935.75;;;19.72;93.96
17764;BME280;22245;52.832;13.816;2022-08-25T05:16:22;101943.84;;;19.72;94.35
17764;BME280;22245;52.832;13.816;2022-08-25T05:19:45;101947.75;;;19.78;94.45
17764;BME280;22245;52.832;13.816;2022-08-25T05:23:08;101951.81;;;19.82;94.06
17764;BME280;22245;52.832;13.816;2022-08-25T05:26:31;101952.03;;;19.89;93.79
17764;BME280;22245;52.832;13.816;2022-08-25T05:29:53;101938.19;;;19.92;93.34
17764;BME280;22245;52.832;13.816;2022-08-25T05:33:15;101947.53;;;19.98;93.50
17764;BME280;22245;52.832;13.816;2022-08-25T05:36:39;101949.03;;;20.00;93.46
17764;BME280;22245;52.832;13.816;2022-08-25T05:40:04;101946.00;;;20.03;93.52
17764;BME280;22245;52.832;13.816;2022-08-25T05:43:26;101947.38;;;20.07;93.26
17764;BME280;22245;52.832;13.816;2022-08-25T05:46:48;101950.59;;;20.11;92.93
17764;BME280;22245;52.832;13.816;2022-08-25T05:50:11;101958.38;;;20.14;93.08
17764;BME280;22245;52.832;13.816;2022-08-25T05:53:35;101951.81;;;20.17;93.27
17764;BME280;22245;52.832;13.816;2022-08-25T05:56:58;101949.78;;;20.19;93.18
17764;BME280;22245;52.832;13.816;2022-08-25T06:00:20;101954.84;;;20.22;93.50
17764;BME280;22245;52.832;13.816;2022-08-25T06:03:43;101954.53;;;20.25;93.54
17764;BME280;22245;52.832;13.816;2022-08-25T06:07:04;101957.91;;;20.27;93.31
17764;BME280;22245;52.832;13.816;2022-08-25T06:10:27;101958.94;;;20.34;92.87
17764;BME280;22245;52.832;13.816;2022-08-25T06:13:49;101957.75;;;20.37;92.81
17764;BME280;22245;52.832;13.816;2022-08-25T06:17:11;101952.50;;;20.44;92.83
17764;BME280;22245;52.832;13.816;2022-08-25T06:20:34;101957.78;;;20.45;92.76
17764;BME280;22245;52.832;13.816;2022-08-25T06:23:56;101953.03;;;20.47;92.97
17764;BME280;22245;52.832;13.816;2022-08-25T06:27:20;101941.03;;;20.50;92.87
17764;BME280;22245;52.832;13.816;2022-08-25T06:30:42;101950.50;;;20.54;92.71
17764;BME280;22245;52.832;13.816;2022-08-25T06:34:03;101955.75;;;20.56;92.53
17764;BME280;22245;52.832;13.816;2022-08-25T06:37:25;101951.88;;;20.58;92.68
17764;BME280;22245;52.832;13.816;2022-08-25T06:40:48;101944.25;;;20.62;92.65
17764;BME280;22245;52.832;13.816;2022-08-25T06:44:12;101954.91;;;20.63;92.59
17764;BME280;22245;52.832;13.816;2022-08-25T06:47:34;101953.56;;;20.67;92.63
17764;BME280;22245;52.832;13.816;2022-08-25T06:50:56;101946.78;;;20.72;92.44
17764;BME280;22245;52.832;13.816;2022-08-25T06:54:18;101950.53;;;20.79;92.25
17764;BME280;22245;52.832;13.816;2022-08-25T06:57:39;101956.63;;;20.81;91.73
17764;BME280;22245;52.832;13.816;2022-08-25T07:01:07;101960.72;;;20.85;91.56
17764;BME280;22245;52.832;13.816;2022-08-25T07:04:39;101957.81;;;20.87;91.35
17764;BME280;22245;52.832;13.816;2022-08-25T07:08:01;101955.63;;;20.90;91.00
17764;BME280;22245;52.832;13.816;2022-08-25T07:11:24;101958.00;;;20.93;91.00
17764;BME280;22245;52.832;13.816;2022-08-25T07:14:45;101955.63;;;20.99;90.67
17764;BME280;22245;52.832;13.816;2022-08-25T07:18:24;101959.00;;;21.01;90.41
17764;BME280;22245;52.832;13.816;2022-08-25T07:21:49;101958.66;;;21.04;89.47
17764;BME280;22245;52.832;13.816;2022-08-25T07:25:11;101963.38;;;21.10;88.78
17764;BME280;22245;52.832;13.816;2022-08-25T07:28:37;101954.91;;;21.13;88.35
17764;BME280;22245;52.832;13.816;2022-08-25T07:32:06;101951.34;;;21.21;87.28
17764;BME280;22245;52.832;13.816;2022-08-25T07:35:31;101951.88;;;21.24;87.32
17764;BME280;22245;52.832;13.816;2022-08-25T07:38:57;101946.44;;;21.24;87.12
17764;BME280;22245;52.832;13.816;2022-08-25T07:42:19;101951.69;;;21.26;87.05
17764;BME280;22245;52.832;13.816;2022-08-25T07:45:41;101944.41;;;21.27;86.81
17764;BME280;22245;52.832;13.816;2022-08-25T07:49:08;101950.16;;;21.32;86.97
17764;BME280;22245;52.832;13.816;2022-08-25T07:52:38;101935.22;;;21.36;86.00
17764;BME280;22245;52.832;13.816;2022-08-25T07:56:00;101932.69;;;21.34;86.50
17764;BME280;22245;52.832;13.816;2022-08-25T07:59:27;101926.09;;;21.37;86.14
17764;BME280;22245;52.832;13.816;2022-08-25T08:02:49;101932.84;;;21.41;85.49
17764;BME280;22245;52.832;13.816;2022-08-25T08:06:15;101935.50;;;21.49;85.33
17764;BME280;22245;52.832;13.816;2022-08-25T08:09:38;101936.50;;;21.57;84.74
17764;BME280;22245;52.832;13.816;2022-08-25T08:13:02;101932.78;;;21.66;84.32
17764;BME280;22245;52.832;13.816;2022-08-25T08:16:28;101935.63;;;21.73;84.26
17764;BME280;22245;52.832;13.816;2022-08-25T08:19:52;101936.53;;;21.65;83.34
17764;BME280;22245;52.832;13.816;2022-08-25T08:23:14;101938.88;;;21.68;82.96
17764;BME280;22245;52.832;13.816;2022-08-25T08:26:37;101933.09;;;21.71;82.75
17764;BME280;22245;52.832;13.816;2022-08-25T08:30:18;101929.03;;;21.75;83.09
17764;BME280;22245;52.832;13.816;2022-08-25T08:33:43;101922.72;;;21.75;82.21
17764;BME280;22245;52.832;13.816;2022-08-25T08:37:05;101929.31;;;21.80;82.30
17764;BME280;22245;52.832;13.816;2022-08-25T08:40:30;101929.84;;;21.84;82.17
17764;BME280;22245;52.832;13.816;2022-08-25T08:44:05;101922.16;;;21.88;81.54
17764;BME280;22245;52.832;13.816;2022-08-25T08:47:38;101918.56;;;21.95;81.73
17764;BME280;22245;52.832;13.816;2022-08-25T08:51:15;101921.44;;;22.02;81.17
17764;BME280;22245;52.832;13.816;2022-08-25T08:54:44;101910.03;;;22.07;80.75
17764;BME280;22245;52.832;13.816;2022-08-25T08:58:11;101907.81;;;22.10;80.53
17764;BME280;22245;52.832;13.816;2022-08-25T09:01:43;101910.47;;;22.19;79.96
17764;BME280;22245;52.832;13.816;2022-08-25T09:05:13;101909.56;;;22.26;79.78
17764;BME280;22245;52.832;13.816;2022-08-25T09:08:40;101901.34;;;22.35;79.80
17764;BME280;22245;52.832;13.816;2022-08-25T09:12:10;101897.09;;;22.40;80.00
17764;BME280;22245;52.832;13.816;2022-08-25T09:15:37;101899.44;;;22.44;79.34
17764;BME280;22245;52.832;13.816;2022-08-25T09:19:32;101899.41;;;22.52;78.88
17764;BME280;22245;52.832;13.816;2022-08-25T09:23:09;101904.09;;;22.58;78.26
17764;BME280;22245;52.832;13.816;2022-08-25T09:26:44;101893.50;;;22.63;78.50
17764;BME280;22245;52.832;13.816;2022-08-25T09:30:11;101892.41;;;22.73;78.18
17764;BME280;22245;52.832;13.816;2022-08-25T09:33:34;101898.81;;;22.80;77.16
17764;BME280;22245;52.832;13.816;2022-08-25T09:36:57;101890.94;;;22.85;77.34
17764;BME280;22245;52.832;13.816;2022-08-25T09:40:20;101886.19;;;22.87;77.44
17764;BME280;22245;52.832;13.816;2022-08-25T09:43:43;101884.41;;;22.94;76.76
17764;BME280;22245;52.832;13.816;2022-08-25T09:47:20;101880.38;;;22.90;76.52
17764;BME280;22245;52.832;13.816;2022-08-25T09:50:42;101880.94;;;23.01;76.26
17764;BME280;22245;52.832;13.816;2022-08-25T09:54:18;101876.25;;;23.09;76.03
17764;BME280;22245;52.832;13.816;2022-08-25T09:57:46;101863.44;;;23.18;75.86
17764;BME280;22245;52.832;13.816;2022-08-25T10:01:14;101864.75;;;23.22;74.78
17764;BME280;22245;52.832;13.816;2022-08-25T10:04:38;101861.53;;;23.19;76.08
17764;BME280;22245;52.832;13.816;2022-08-25T10:08:03;101853.31;;;23.27;75.46
17764;BME280;22245;52.832;13.816;2022-08-25T10:11:35;101843.19;;;23.36;75.44
17764;BME280;22245;52.832;13.816;2022-08-25T10:14:58;101851.06;;;23.46;75.06
17764;BME280;22245;52.832;13.816;2022-08-25T10:18:23;101843.16;;;23.51;74.42
17764;BME280;22245;52.832;13.816;2022-08-25T10:22:01;101843.81;;;23.53;74.67
17764;BME280;22245;52.832;13.816;2022-08-25T10:25:27;101843.25;;;23.58;73.95
17764;BME280;22245;52.832;13.816;2022-08-25T10:29:01;101841.19;;;23.60;74.94
17764;BME280;22245;52.832;13.816;2022-08-25T10:32:38;101845.59;;;23.61;74.80
17764;BME280;22245;52.832;13.816;2022-08-25T10:36:08;101837.88;;;23.64;74.09
17764;BME280;22245;52.832;13.816;2022-08-25T10:39:40;101841.72;;;23.70;73.81
17764;BME280;22245;52.832;13.816;2022-08-25T10:43:06;101835.88;;;23.73;73.51
17764;BME280;22245;52.832;13.816;2022-08-25T10:46:46;101833.56;;;23.70;73.36
17764;BME280;22245;52.832;13.816;2022-08-25T10:50:26;101836.38;;;23.77;72.39
17764;BME280;22245;52.832;13.816;2022-08-25T10:53:54;101826.78;;;23.81;73.15
17764;BME280;22245;52.832;13.816;2022-08-25T10:57:22;101838.66;;;23.95;72.91
17764;BME280;22245;52.832;13.816;2022-08-25T11:00:54;101824.00;;;23.96;71.80
17764;BME280;22245;52.832;13.816;2022-08-25T11:04:25;101815.09;;;24.02;72.68
17764;BME280;22245;52.832;13.816;2022-08-25T11:07:56;101812.16;;;24.04;73.02
17764;BME280;22245;52.832;13.816;2022-08-25T11:11:31;101803.25;;;24.10;72.05
17764;BME280;22245;52.832;13.816;2022-08-25T11:14:59;101801.19;;;24.19;71.92
17764;BME280;22245;52.832;13.816;2022-08-25T11:18:24;101795.09;;;24.17;71.86
17764;BME280;22245;52.832;13.816;2022-08-25T11:21:58;101796.84;;;24.24;72.19
17764;BME280;22245;52.832;13.816;2022-08-25T11:25:26;101800.03;;;24.28;71.40
17764;BME280;22245;52.832;13.816;2022-08-25T11:28:55;101795.41;;;24.28;71.31
17764;BME280;22245;52.832;13.816;2022-08-25T11:32:20;101788.53;;;24.33;70.49
17764;BME280;22245;52.832;13.816;2022-08-25T11:35:47;101791.25;;;24.33;70.24
17764;BME280;22245;52.832;13.816;2022-08-25T11:39:23;101791.91;;;24.35;69.04
17764;BME280;22245;52.832;13.816;2022-08-25T11:43:00;101789.44;;;24.40;69.47
17764;BME280;22245;52.832;13.816;2022-08-25T11:46:40;101781.53;;;24.45;70.55
17764;BME280;22245;52.832;13.816;2022-08-25T11:50:23;101779.44;;;24.47;69.66
17764;BME280;22245;52.832;13.816;2022-08-25T11:54:06;101771.72;;;24.51;69.71
17764;BME280;22245;52.832;13.816;2022-08-25T11:57:36;101774.66;;;24.56;68.88
17764;BME280;22245;52.832;13.816;2022-08-25T12:00:59;101775.94;;;24.60;69.95
17764;BME280;22245;52.832;13.816;2022-08-25T12:04:34;101759.88;;;24.65;69.63
17764;BME280;22245;52.832;13.816;2022-08-25T12:08:05;101761.16;;;24.69;69.30
17764;BME280;22245;52.832;13.816;2022-08-25T12:11:48;101755.97;;;24.75;68.90
17764;BME280;22245;52.832;13.816;2022-08-25T12:15:20;101759.56;;;24.82;69.42
17764;BME280;22245;52.832;13.816;2022-08-25T12:18:44;101743.84;;;24.84;69.20
17764;BME280;22245;52.832;13.816;2022-08-25T12:22:43;101747.44;;;24.91;69.86
17764;BME280;22245;52.832;13.816;2022-08-25T12:26:22;101744.53;;;24.93;69.19
17764;BME280;22245;52.832;13.816;2022-08-25T12:29:50;101734.31;;;25.02;68.86
17764;BME280;22245;52.832;13.816;2022-08-25T12:33:22;101732.22;;;25.10;68.67
17764;BME280;22245;52.832;13.816;2022-08-25T12:36:57;101733.75;;;25.20;68.04
17764;BME280;22245;52.832;13.816;2022-08-25T12:40:24;101728.09;;;25.28;67.52
17764;BME280;22245;52.832;13.816;2022-08-25T12:43:49;101721.81;;;25.34;67.46
17764;BME280;22245;52.832;13.816;2022-08-25T12:47:29;101721.84;;;25.41;66.83
17764;BME280;22245;52.832;13.816;2022-08-25T12:50:58;101718.47;;;25.46;66.93
17764;BME280;22245;52.832;13.816;2022-08-25T12:54:24;101716.22;;;25.49;66.60
17764;BME280;22245;52.832;13.816;2022-08-25T12:57:54;101707.41;;;25.54;66.18
17764;BME280;22245;52.832;13.816;2022-08-25T13:01:30;101700.28;;;25.60;65.72
17764;BME280;22245;52.832;13.816;2022-08-25T13:05:29;101703.84;;;25.67;65.05
17764;BME280;22245;52.832;13.816;2022-08-25T13:09:51;101689.59;;;25.71;64.26
17764;BME280;22245;52.832;13.816;2022-08-25T13:13:32;101688.97;;;25.76;64.71
17764;BME280;22245;52.832;13.816;2022-08-25T13:17:09;101679.94;;;25.76;64.70
17764;BME280;22245;52.832;13.816;2022-08-25T13:20:31;101688.53;;;25.79;63.65
17764;BME280;22245;52.832;13.816;2022-08-25T13:23:56;101685.59;;;25.81;64.16
17764;BME280;22245;52.832;13.816;2022-08-25T13:27:27;101685.59;;;25.88;63.19
17764;BME280;22245;52.832;13.816;2022-08-25T13:31:04;101683.69;;;25.95;63.49
17764;BME280;22245;52.832;13.816;2022-08-25T13:34:29;101681.81;;;26.02;62.62
17764;BME280;22245;52.832;13.816;2022-08-25T13:38:11;101670.03;;;26.08;62.32
17764;BME280;22245;52.832;13.816;2022-08-25T13:41:33;101663.31;;;26.11;62.08
17764;BME280;22245;52.832;13.816;2022-08-25T13:44:57;101667.75;;;26.19;61.67
17764;BME280;22245;52.832;13.816;2022-08-25T13:48:32;101670.44;;;26.25;61.59
17764;BME280;22245;52.832;13.816;2022-08-25T13:51:55;101665.41;;;26.29;61.61
17764;BME280;22245;52.832;13.816;2022-08-25T13:55:21;101663.50;;;26.29;61.31
17764;BME280;22245;52.832;13.816;2022-08-25T13:58:47;101655.09;;;26.31;60.65
17764;BME280;22245;52.832;13.816;2022-08-25T14:02:12;101656.16;;;26.30;61.45
17764;BME280;22245;52.832;13.816;2022-08-25T14:05:41;101651.13;;;26.27;62.01
17764;BME280;22245;52.832;13.816;2022-08-25T14:09:12;101647.97;;;26.30;61.06
17764;BME280;22245;52.832;13.816;2022-08-25T14:12:38;101644.81;;;26.26;61.29
17764;BME280;22245;52.832;13.816;2022-08-25T14:16:09;101638.72;;;26.24;61.71
17764;BME280;22245;52.832;13.816;2022-08-25T14:19:36;101640.84;;;26.29;61.64
17764;BME280;22245;52.832;13.816;2022-08-25T14:23:09;101645.00;;;26.32;61.24
17764;BME280;22245;52.832;13.816;2022-08-25T14:26:38;101640.81;;;26.36;61.12
17764;BME280;22245;52.832;13.816;2022-08-25T14:30:13;101628.00;;;26.36;60.77
17764;BME280;22245;52.832;13.816;2022-08-25T14:33:52;101618.31;;;26.40;60.89
17764;BME280;22245;52.832;13.816;2022-08-25T14:37:18;101614.72;;;26.47;60.99
17764;BME280;22245;52.832;13.816;2022-08-25T14:40:44;101610.28;;;26.52;60.74
17764;BME280;22245;52.832;13.816;2022-08-25T14:44:08;101614.66;;;26.60;59.87
17764;BME280;22245;52.832;13.816;2022-08-25T14:47:30;101605.38;;;26.68;59.73
17764;BME280;22245;52.832;13.816;2022-08-25T14:50:54;101601.34;;;26.77;58.62
17764;BME280;22245;52.832;13.816;2022-08-25T14:54:19;101596.25;;;26.87;58.42
17764;BME280;22245;52.832;13.816;2022-08-25T14:57:43;101594.66;;;27.05;57.89
17764;BME280;22245;52.832;13.816;2022-08-25T15:01:05;101595.91;;;27.85;56.17
17764;BME280;22245;52.832;13.816;2022-08-25T15:04:28;101581.47;;;28.83;53.07
17764;BME280;22245;52.832;13.816;2022-08-25T15:07:51;101581.38;;;29.44;51.00
17764;BME280;22245;52.832;13.816;2022-08-25T15:11:34;101571.94;;;29.88;49.04
17764;BME280;22245;52.832;13.816;2022-08-25T15:15:01;101572.72;;;30.24;48.12
17764;BME280;22245;52.832;13.816;2022-08-25T15:18:24;101571.69;;;30.42;48.19
17764;BME280;22245;52.832;13.816;2022-08-25T15:21:46;101572.63;;;30.48;48.32
17764;BME280;22245;52.832;13.816;2022-08-25T15:25:09;101570.56;;;30.55;47.42
17764;BME280;22245;52.832;13.816;2022-08-25T15:28:32;101568.84;;;30.66;47.55
17764;BME280;22245;52.832;13.816;2022-08-25T15:31:54;101569.63;;;30.61;47.40
17764;BME280;22245;52.832;13.816;2022-08-25T15:35:17;101564.81;;;30.57;47.21
17764;BME280;22245;52.832;13.816;2022-08-25T15:38:41;101564.03;;;30.44;47.61
17764;BME280;22245;52.832;13.816;2022-08-25T15:42:04;101563.69;;;30.41;47.50
17764;BME280;22245;52.832;13.816;2022-08-25T15:45:27;101558.13;;;30.24;47.54
17764;BME280;22245;52.832;13.816;2022-08-25T15:48:49;101552.94;;;30.10;48.33
17764;BME280;22245;52.832;13.816;2022-08-25T15:52:12;101551.03;;;29.99;48.66
17764;BME280;22245;52.832;13.816;2022-08-25T15:55:36;101545.69;;;29.68;49.12
17764;BME280;22245;52.832;13.816;2022-08-25T15:59:03;101549.00;;;29.35;50.25
17764;BME280;22245;52.832;13.816;2022-08-25T16:02:29;101541.63;;;29.23;51.17
17764;BME280;22245;52.832;13.816;2022-08-25T16:05:52;101536.25;;;29.28;51.29
17764;BME280;22245;52.832;13.816;2022-08-25T16:09:14;101533.50;;;29.28;50.39
17764;BME280;22245;52.832;13.816;2022-08-25T16:12:42;101516.69;;;29.25;50.87
17764;BME280;22245;52.832;13.816;2022-08-25T16:16:05;101521.22;;;29.19;51.10
17764;BME280;22245;52.832;13.816;2022-08-25T16:19:30;101525.06;;;29.18;50.91
17764;BME280;22245;52.832;13.816;2022-08-25T16:22:55;101515.16;;;29.17;50.91
17764;BME280;22245;52.832;13.816;2022-08-25T16:26:20;101518.59;;;29.24;51.01
17764;BME280;22245;52.832;13.816;2022-08-25T16:29:42;101513.13;;;29.24;50.61
17764;BME280;22245;52.832;13.816;2022-08-25T16:33:05;101517.75;;;29.24;50.44
17764;BME280;22245;52.832;13.816;2022-08-25T16:36:30;101511.56;;;29.16;50.83
17764;BME280;22245;52.832;13.816;2022-08-25T16:39:52;101504.19;;;29.17;50.96
17764;BME280;22245;52.832;13.816;2022-08-25T16:43:14;101505.47;;;29.14;50.54
17764;BME280;22245;52.832;13.816;2022-08-25T16:46:37;101503.44;;;29.10;51.28
17764;BME280;22245;52.832;13.816;2022-08-25T16:50:00;101506.91;;;29.05;51.20
17764;BME280;22245;52.832;13.816;2022-08-25T16:53:24;101498.06;;;28.91;51.87
17764;BME280;22245;52.832;13.816;2022-08-25T16:57:08;101506.16;;;28.86;51.77
17764;BME280;22245;52.832;13.816;2022-08-25T17:00:30;101500.16;;;28.77;51.78
17764;BME280;22245;52.832;13.816;2022-08-25T17:03:52;101496.66;;;28.58;52.78
17764;BME280;22245;52.832;13.816;2022-08-25T17:07:15;101488.63;;;28.44;53.64
17764;BME280;22245;52.832;13.816;2022-08-25T17:10:45;101490.25;;;28.34;53.71
17764;BME280;22245;52.832;13.816;2022-08-25T17:14:08;101487.84;;;28.25;53.89
17764;BME280;22245;52.832;13.816;2022-08-25T17:17:30;101490.50;;;28.13;53.95
17764;BME280;22245;52.832;13.816;2022-08-25T17:20:59;101492.13;;;28.02;54.64
17764;BME280;22245;52.832;13.816;2022-08-25T17:24:23;101484.44;;;27.93;54.55
17764;BME280;22245;52.832;13.816;2022-08-25T17:27:52;101490.44;;;27.83;55.63
17764;BME280;22245;52.832;13.816;2022-08-25T17:31:14;101490.16;;;27.72;55.81
17764;BME280;22245;52.832;13.816;2022-08-25T17:34:36;101494.47;;;27.62;56.64
17764;BME280;22245;52.832;13.816;2022-08-25T17:37:58;101494.59;;;27.48;57.10
17764;BME280;22245;52.832;13.816;2022-08-25T17:41:20;101492.81;;;27.35;57.21
17764;BME280;22245;52.832;13.816;2022-08-25T17:44:44;101487.88;;;27.25;57.91